Time;durP1;ratioP1;P1;durP2;ratioP2;P2;SDS_P1;SDS_P2;PMS_P1;PMS_P2;Temp;Humidity;BMP_temperature;BMP_pressure;BME280_temperature;BME280_humidity;BME280_pressure;Samples;Min_cycle;Max_cycle;Signal;HPM_P1;HPM_P2
2021/12/11 00:02:12;;;;;;;76.90;37.30;;;;;;;0.44;87.45;99604.53;88000;1281;95599;-66
2021/12/11 00:04:31;;;;;;;73.30;33.30;;;;;;;0.43;87.54;99608.64;87980;1282;81006;-66
2021/12/11 00:06:47;;;;;;;77.50;34.60;;;;;;;0.45;87.63;99619.59;87916;1283;81007;-67
2021/12/11 00:09:11;;;;;;;72.50;33.80;;;;;;;0.44;87.35;99622.55;87970;1285;99331;-67
2021/12/11 00:11:27;;;;;;;76.70;34.20;;;;;;;0.45;87.42;99625.24;88001;1282;88448;-68
2021/12/11 00:13:40;;;;;;;79.00;35.00;;;;;;;0.49;87.46;99620.10;87933;1285;95819;-66
2021/12/11 00:15:51;;;;;;;70.90;33.90;;;;;;;0.52;87.65;99620.65;87997;1285;78037;-65
2021/12/11 00:18:12;;;;;;;70.10;30.80;;;;;;;0.58;87.62;99616.21;87939;1285;80448;-67
2021/12/11 00:20:28;;;;;;;76.70;36.50;;;;;;;0.60;87.47;99617.24;87975;1277;98716;-66
2021/12/11 00:22:41;;;;;;;75.60;36.90;;;;;;;0.59;87.56;99615.60;87975;1284;88281;-64
2021/12/11 00:24:49;;;;;;;;;;;;;;;0.62;87.70;99623.14;87983;1282;94747;-65
2021/12/11 00:27:03;;;;;;;88.50;37.50;;;;;;;0.56;87.33;99621.90;87944;1281;79156;-64
2021/12/11 00:29:15;;;;;;;85.20;38.20;;;;;;;0.54;87.65;99621.02;88001;1279;80513;-63
2021/12/11 00:31:24;;;;;;;80.60;37.40;;;;;;;0.53;87.54;99619.40;87930;1281;99695;-63
2021/12/11 00:33:37;;;;;;;85.50;38.00;;;;;;;0.49;87.26;99618.11;87989;1280;87222;-64
2021/12/11 00:35:47;;;;;;;98.00;40.10;;;;;;;0.44;87.56;99624.18;87919;1281;92818;-64
2021/12/11 00:38:04;;;;;;;89.20;38.30;;;;;;;0.38;87.45;99623.96;87934;1281;79237;-67
2021/12/11 00:40:19;;;;;;;81.70;35.40;;;;;;;0.45;87.73;99624.05;87973;1282;83825;-68
2021/12/11 00:42:34;;;;;;;79.00;36.30;;;;;;;0.52;87.50;99623.14;88024;1282;98616;-68
2021/12/11 00:44:48;;;;;;;81.10;37.60;;;;;;;0.58;87.55;99627.55;87930;1282;87302;-68
2021/12/11 00:47:09;;;;;;;74.70;35.80;;;;;;;0.66;87.61;99628.75;87641;1284;97819;-68
2021/12/11 00:49:22;;;;;;;75.10;35.50;;;;;;;0.70;87.38;99631.04;87999;1280;78230;-66
2021/12/11 00:51:31;;;;;;;80.00;37.30;;;;;;;0.72;87.39;99641.29;88026;1278;79288;-66
2021/12/11 00:53:45;;;;;;;79.10;37.00;;;;;;;0.75;87.24;99641.59;87668;1285;99554;-69
2021/12/11 00:55:58;;;;;;;76.70;36.10;;;;;;;0.68;87.34;99639.74;87957;1283;87979;-62
2021/12/11 00:58:11;;;;;;;80.10;35.70;;;;;;;0.66;87.26;99640.50;87969;1274;92447;-64
2021/12/11 01:00:25;;;;;;;86.00;37.10;;;;;;;0.65;87.16;99639.46;87963;1284;81932;-66
2021/12/11 01:02:35;;;;;;;80.80;36.20;;;;;;;0.59;87.15;99643.94;87982;1282;81628;-66
2021/12/11 01:04:45;;;;;;;80.70;35.80;;;;;;;0.52;87.33;99651.57;87903;1283;98782;-66
2021/12/11 01:06:59;;;;;;;81.70;38.10;;;;;;;0.53;87.35;99651.45;87978;1277;86925;-66
2021/12/11 01:09:14;;;;;;;81.10;37.20;;;;;;;0.54;87.24;99651.73;87981;1281;94427;-67
2021/12/11 01:11:27;;;;;;;79.30;35.20;;;;;;;0.49;87.38;99647.94;87988;1281;79003;-68
2021/12/11 01:13:43;;;;;;;79.40;36.00;;;;;;;0.53;87.37;99648.80;88000;1281;83113;-66
2021/12/11 01:16:01;;;;;;;77.60;36.20;;;;;;;0.55;87.55;99650.55;87981;1282;99906;-67
2021/12/11 01:18:23;;;;;;;76.40;36.00;;;;;;;0.49;87.54;99658.04;87975;1282;88500;-66
2021/12/11 01:20:46;;;;;;;78.80;35.20;;;;;;;0.48;87.38;99662.90;87964;1282;95033;-66
2021/12/11 01:22:57;;;;;;;60.90;26.70;;;;;;;0.44;87.49;99665.59;87987;1281;79462;-64
2021/12/11 01:25:12;;;;;;;77.30;32.20;;;;;;;0.37;87.38;99674.75;87991;1282;81206;-65
2021/12/11 01:27:27;;;;;;;81.20;35.30;;;;;;;0.45;87.51;99670.45;87975;1285;98531;-65
2021/12/11 01:29:37;;;;;;;81.00;33.70;;;;;;;0.52;87.49;99671.92;87958;1280;89209;-66
2021/12/11 01:31:46;;;;;;;72.30;32.70;;;;;;;0.57;87.34;99677.92;87988;1281;93452;-63
2021/12/11 01:33:58;;;;;;;74.10;32.50;;;;;;;0.56;87.46;99678.27;87964;1281;77181;-62
2021/12/11 01:36:10;;;;;;;71.00;31.80;;;;;;;0.48;87.54;99684.15;87961;1282;82345;-63
2021/12/11 01:38:24;;;;;;;73.00;32.50;;;;;;;0.39;87.61;99680.17;87908;1285;97944;-63
2021/12/11 01:40:34;;;;;;;78.90;34.80;;;;;;;0.40;87.46;99676.79;88007;1280;88525;-63
2021/12/11 01:42:44;;;;;;;72.10;31.10;;;;;;;0.40;87.50;99677.77;87941;1285;95277;-66
2021/12/11 01:44:55;;;;;;;85.00;34.80;;;;;;;0.42;87.40;99680.83;88008;1282;78849;-63
2021/12/11 01:47:10;;;;;;;72.80;31.50;;;;;;;0.43;87.24;99685.01;88012;1283;80598;-63
2021/12/11 01:49:22;;;;;;;67.90;30.30;;;;;;;0.43;87.55;99686.94;87994;1279;99855;-63
2021/12/11 01:51:38;;;;;;;70.40;28.90;;;;;;;0.43;87.60;99691.16;87973;1281;89381;-66
2021/12/11 01:53:55;;;;;;;62.40;29.10;;;;;;;0.43;87.33;99697.38;87989;1283;93991;-66
2021/12/11 01:56:09;;;;;;;67.70;29.30;;;;;;;0.46;87.28;99698.21;87973;1282;77646;-63
2021/12/11 01:58:26;;;;;;;68.80;29.70;;;;;;;0.46;87.14;99701.38;87972;1282;83002;-63
2021/12/11 02:00:40;;;;;;;67.10;29.80;;;;;;;0.40;87.40;99704.89;87978;1282;99058;-63
2021/12/11 02:02:50;;;;;;;;;;;;;;;0.31;87.30;99698.36;87998;1287;88753;-63
2021/12/11 02:04:59;;;;;;;77.40;32.60;;;;;;;0.16;87.43;99699.53;87980;1282;95574;-63
2021/12/11 02:07:17;;;;;;;67.40;30.00;;;;;;;0.19;87.32;99700.30;87974;1282;78911;-63
2021/12/11 02:09:30;;;;;;;71.60;32.60;;;;;;;0.18;87.40;99705.45;87905;1278;81834;-64
2021/12/11 02:11:40;;;;;;;70.90;29.80;;;;;;;0.14;87.47;99708.04;88001;1285;97401;-67
2021/12/11 02:13:55;;;;;;;65.30;29.70;;;;;;;0.16;87.73;99709.31;87982;1281;89310;-67
2021/12/11 02:16:06;;;;;;;77.50;32.50;;;;;;;0.20;87.75;99711.04;87972;1281;93894;-67
2021/12/11 02:18:21;;;;;;;67.10;29.20;;;;;;;0.25;87.93;99713.27;88006;1276;80444;-67
2021/12/11 02:20:37;;;;;;;67.20;29.50;;;;;;;0.24;87.77;99717.71;87704;1283;82837;-67
2021/12/11 02:23:05;;;;;;;63.70;30.60;;;;;;;0.28;87.75;99714.77;87976;1285;101617;-66
2021/12/11 02:25:21;;;;;;;70.80;30.30;;;;;;;0.34;87.51;99718.73;87723;1283;89622;-66
2021/12/11 02:27:41;;;;;;;69.00;29.70;;;;;;;0.33;87.79;99716.08;88007;1281;94326;-67
2021/12/11 02:29:56;;;;;;;70.40;30.40;;;;;;;0.31;87.73;99719.95;87913;1285;77541;-68
2021/12/11 02:32:13;;;;;;;75.30;31.90;;;;;;;0.24;87.67;99728.05;87998;1277;82427;-67
2021/12/11 02:34:34;;;;;;;79.40;31.70;;;;;;;0.25;87.74;99735.19;88025;1281;99463;-68
2021/12/11 02:36:51;;;;;;;78.30;32.20;;;;;;;0.25;87.82;99736.30;88002;1281;89063;-63
2021/12/11 02:39:08;;;;;;;74.60;30.10;;;;;;;0.27;87.61;99733.39;87969;1281;95143;-64
2021/12/11 02:41:24;;;;;;;69.90;31.10;;;;;;;0.28;87.78;99731.71;87965;1281;81678;-68
2021/12/11 02:43:38;;;;;;;73.90;31.00;;;;;;;0.34;87.57;99733.52;87990;1282;81821;-67
2021/12/11 02:45:56;;;;;;;72.30;32.40;;;;;;;0.34;87.77;99741.79;87973;1282;100188;-66
2021/12/11 02:48:17;;;;;;;70.80;32.70;;;;;;;0.36;87.73;99745.84;88020;1281;89584;-67
2021/12/11 02:50:33;;;;;;;74.60;30.90;;;;;;;0.47;87.63;99749.21;87971;1282;95459;-67
2021/12/11 02:52:50;;;;;;;73.70;30.70;;;;;;;0.50;87.60;99757.10;88013;1270;76160;-63
2021/12/11 02:55:10;;;;;;;71.00;29.60;;;;;;;0.46;87.44;99760.48;87999;1282;82653;-63
2021/12/11 02:57:32;;;;;;;77.30;33.80;;;;;;;0.45;87.57;99768.93;88005;1283;98890;-66
2021/12/11 02:59:45;;;;;;;71.70;31.30;;;;;;;0.39;87.39;99770.85;87984;1281;89464;-67
2021/12/11 03:02:01;;;;;;;79.00;31.30;;;;;;;0.29;87.40;99776.42;87994;1282;94134;-64
2021/12/11 03:04:22;;;;;;;80.00;31.00;;;;;;;0.27;87.51;99780.38;87968;1281;78952;-65
2021/12/11 03:06:39;;;;;;;75.50;31.30;;;;;;;0.28;87.43;99786.41;87997;1281;82926;-64
2021/12/11 03:08:51;;;;;;;72.20;30.00;;;;;;;0.26;87.57;99787.48;87990;1284;100059;-64
2021/12/11 03:11:05;;;;;;;72.00;31.30;;;;;;;0.29;87.82;99791.83;88007;1281;89304;-68
2021/12/11 03:13:14;;;;;;;69.50;31.30;;;;;;;0.35;87.63;99791.79;87987;1282;94247;-66
2021/12/11 03:15:25;;;;;;;76.20;31.70;;;;;;;0.32;87.70;99789.98;87988;1280;77877;-66
2021/12/11 03:17:35;;;;;;;78.80;33.80;;;;;;;0.31;87.75;99785.28;88025;1285;82847;-67
2021/12/11 03:19:46;;;;;;;86.30;33.10;;;;;;;0.33;87.82;99786.84;87996;1285;99161;-67
2021/12/11 03:21:58;;;;;;;82.30;33.70;;;;;;;0.33;87.94;99792.17;88007;1281;87210;-65
2021/12/11 03:24:10;;;;;;;86.50;33.50;;;;;;;0.27;87.77;99795.71;87984;1282;94976;-64
2021/12/11 03:26:19;;;;;;;84.90;34.50;;;;;;;0.23;87.90;99798.90;87997;1282;80417;-65
2021/12/11 03:28:28;;;;;;;79.30;33.80;;;;;;;0.21;87.71;99796.30;87983;1281;80474;-64
2021/12/11 03:30:43;;;;;;;91.60;36.00;;;;;;;0.20;87.76;99790.20;87726;1282;99110;-64
2021/12/11 03:32:56;;;;;;;78.00;30.60;;;;;;;0.28;87.80;99792.30;87967;1281;88993;-66
2021/12/11 03:35:07;;;;;;;69.10;30.90;;;;;;;0.33;87.80;99796.45;87993;1282;95738;-67
2021/12/11 03:37:19;;;;;;;67.20;29.60;;;;;;;0.28;88.04;99802.23;87896;1281;77313;-65
2021/12/11 03:39:32;;;;;;;70.60;30.40;;;;;;;0.27;87.90;99801.20;88009;1280;83000;-65
2021/12/11 03:41:45;;;;;;;69.90;31.30;;;;;;;0.26;87.87;99800.95;88031;1281;99476;-64
2021/12/11 03:43:54;;;;;;;70.40;30.70;;;;;;;0.26;87.82;99797.73;88030;1278;86864;-63
2021/12/11 03:46:10;;;;;;;71.20;31.00;;;;;;;0.22;87.51;99794.40;87915;1285;94899;-63
2021/12/11 03:48:25;;;;;;;69.10;29.90;;;;;;;0.16;87.61;99792.66;87909;1281;81770;-64
2021/12/11 03:50:38;;;;;;;71.10;30.80;;;;;;;0.14;87.70;99792.49;87909;1279;80904;-63
2021/12/11 03:52:51;;;;;;;77.10;31.10;;;;;;;0.16;87.49;99791.85;87879;1282;99237;-64
2021/12/11 03:55:00;;;;;;;61.00;29.40;;;;;;;0.14;87.68;99794.64;87990;1282;88721;-64
2021/12/11 03:57:15;;;;;;;66.40;30.90;;;;;;;0.09;87.64;99796.84;88004;1280;94028;-67
2021/12/11 03:59:24;;;;;;;62.20;28.20;;;;;;;0.12;87.63;99799.39;88003;1281;77784;-67
2021/12/11 04:01:40;;;;;;;69.40;31.70;;;;;;;0.05;87.63;99807.15;88036;1281;81510;-64
2021/12/11 04:03:54;;;;;;;65.90;29.20;;;;;;;-0.04;87.53;99809.89;88011;1282;99090;-64
2021/12/11 04:06:07;;;;;;;64.80;29.20;;;;;;;-0.03;87.69;99816.00;88043;1279;87700;-64
2021/12/11 04:08:21;;;;;;;68.10;30.10;;;;;;;-0.11;87.83;99819.91;87896;1285;95581;-64
2021/12/11 04:10:33;;;;;;;59.60;27.30;;;;;;;-0.14;87.82;99825.27;87992;1282;80836;-63
2021/12/11 04:12:44;;;;;;;59.30;28.80;;;;;;;-0.15;87.71;99824.18;88040;1281;82266;-66
2021/12/11 04:14:57;;;;;;;59.40;25.70;;;;;;;-0.15;87.79;99825.77;88020;1285;99967;-64
2021/12/11 04:17:06;;;;;;;;;;;;;;;-0.16;87.69;99821.55;88032;1285;89538;-64
2021/12/11 04:19:17;;;;;;;57.10;25.90;;;;;;;-0.15;87.70;99821.30;87782;1283;96746;-64
2021/12/11 04:21:27;;;;;;;58.30;26.80;;;;;;;-0.06;87.82;99822.50;87988;1282;81100;-63
2021/12/11 04:23:38;;;;;;;61.10;28.50;;;;;;;0.06;87.89;99825.82;88004;1282;80585;-64
2021/12/11 04:25:52;;;;;;;64.20;27.40;;;;;;;0.14;87.67;99824.21;87909;1282;100021;-66
2021/12/11 04:28:02;;;;;;;61.50;28.00;;;;;;;0.11;87.78;99827.17;87997;1282;88373;-64
2021/12/11 04:30:16;;;;;;;65.00;27.70;;;;;;;0.09;87.86;99825.58;88024;1281;93991;-67
2021/12/11 04:32:31;;;;;;;62.40;26.80;;;;;;;0.05;87.87;99824.87;87788;1283;79379;-63
2021/12/11 04:34:41;;;;;;;68.10;28.90;;;;;;;-0.04;87.68;99828.29;87895;1281;81773;-63
2021/12/11 04:36:59;;;;;;;66.30;28.60;;;;;;;-0.03;87.81;99832.45;87998;1279;97406;-67
2021/12/11 04:39:13;;;;;;;71.40;30.00;;;;;;;-0.04;87.95;99837.98;88003;1277;88444;-66
2021/12/11 04:41:33;;;;;;;66.40;30.30;;;;;;;-0.04;87.98;99841.39;88014;1278;92382;-65
2021/12/11 04:43:43;;;;;;;66.60;29.40;;;;;;;-0.02;87.87;99849.02;88007;1282;81276;-64
2021/12/11 04:46:01;;;;;;;67.00;29.00;;;;;;;0.06;87.56;99850.27;88016;1281;82315;-66
2021/12/11 04:48:21;;;;;;;68.00;28.80;;;;;;;-0.03;87.52;99854.70;88041;1278;100847;-68
2021/12/11 04:50:43;;;;;;;71.00;31.10;;;;;;;-0.05;87.80;99854.92;87763;1280;89244;-65
2021/12/11 04:52:55;;;;;;;60.70;27.10;;;;;;;-0.01;87.74;99856.35;87986;1282;95848;-68
2021/12/11 04:55:20;;;;;;;73.70;32.10;;;;;;;-0.11;87.65;99854.93;88006;1275;77673;-68
2021/12/11 05:00:07;;;;;;;79.90;33.40;;;;;;;-0.15;87.68;99859.05;88004;1273;97326;-67
2021/12/11 05:02:52;;;;;;;69.70;31.10;;;;;;;-0.18;87.78;99856.99;88020;1279;87752;-67
2021/12/11 05:05:16;;;;;;;71.60;29.20;;;;;;;-0.13;87.57;99857.21;87894;1285;95539;-67
2021/12/11 05:07:33;;;;;;;75.00;31.60;;;;;;;-0.16;87.57;99868.15;87977;1281;79456;-69
2021/12/11 05:09:57;;;;;;;72.90;30.20;;;;;;;-0.14;87.67;99868.30;87900;1279;81609;-68
2021/12/11 05:12:18;;;;;;;76.50;32.30;;;;;;;-0.08;87.80;99871.50;88013;1282;99076;-64
2021/12/11 05:14:29;;;;;;;71.10;31.00;;;;;;;-0.03;87.83;99871.58;88005;1273;85987;-65
2021/12/11 05:16:39;;;;;;;66.20;30.70;;;;;;;0.00;87.99;99866.50;87981;1281;94916;-64
2021/12/11 05:18:49;;;;;;;72.30;33.30;;;;;;;0.03;87.97;99877.59;87847;1272;77859;-66
2021/12/11 05:21:03;;;;;;;73.10;35.90;;;;;;;0.06;87.82;99881.73;87939;1282;81955;-64
2021/12/11 05:23:12;;;;;;;70.70;32.70;;;;;;;0.07;87.71;99888.57;88011;1282;100177;-68
2021/12/11 05:25:22;;;;;;;73.40;33.60;;;;;;;0.09;87.65;99888.36;87907;1281;87532;-64
2021/12/11 05:27:31;;;;;;;70.60;28.70;;;;;;;0.06;87.60;99895.55;88017;1281;95296;-65
2021/12/11 05:29:42;;;;;;;64.80;28.90;;;;;;;0.04;87.70;99896.75;88017;1282;78822;-68
2021/12/11 05:31:52;;;;;;;61.50;28.90;;;;;;;0.06;87.62;99901.09;87925;1281;79510;-65
2021/12/11 05:34:01;;;;;;;60.00;27.20;;;;;;;0.07;87.53;99903.10;87876;1281;99901;-64
2021/12/11 05:36:14;;;;;;;63.30;27.60;;;;;;;0.05;87.71;99904.66;88015;1282;88050;-64
2021/12/11 05:38:26;;;;;;;59.20;27.00;;;;;;;0.08;87.52;99905.45;87687;1280;95669;-65
2021/12/11 05:40:37;;;;;;;60.10;29.00;;;;;;;0.11;87.60;99905.19;88004;1281;77843;-65
2021/12/11 05:42:48;;;;;;;78.20;34.30;;;;;;;0.14;87.99;99911.30;88035;1279;81043;-67
2021/12/11 05:44:57;;;;;;;65.10;28.10;;;;;;;0.15;87.82;99913.75;87880;1278;100036;-67
2021/12/11 05:47:07;;;;;;;65.20;29.60;;;;;;;0.12;87.90;99912.17;88048;1277;88080;-68
2021/12/11 05:49:17;;;;;;;62.00;29.00;;;;;;;0.11;87.88;99917.05;88015;1281;94757;-67
2021/12/11 05:51:28;;;;;;;63.90;29.60;;;;;;;0.09;88.02;99917.84;87998;1281;78267;-64
2021/12/11 05:53:37;;;;;;;60.60;26.90;;;;;;;0.05;87.82;99918.52;88027;1281;83170;-65
2021/12/11 05:55:48;;;;;;;62.20;27.30;;;;;;;0.04;87.73;99918.94;88020;1282;98451;-65
2021/12/11 05:58:00;;;;;;;65.80;28.70;;;;;;;0.02;87.74;99921.52;88016;1281;89200;-66
2021/12/11 06:00:13;;;;;;;62.40;26.40;;;;;;;0.02;88.07;99925.64;87989;1281;95084;-65
2021/12/11 06:02:27;;;;;;;63.00;27.40;;;;;;;0.03;87.67;99928.57;87992;1280;78719;-66
2021/12/11 06:04:40;;;;;;;65.60;27.80;;;;;;;0.07;87.80;99935.64;88015;1282;82883;-66
2021/12/11 06:06:50;;;;;;;61.70;26.60;;;;;;;0.09;87.71;99934.58;88003;1282;97337;-67
2021/12/11 06:08:59;;;;;;;58.60;26.70;;;;;;;0.13;87.77;99937.92;88017;1281;87233;-66
2021/12/11 06:11:11;;;;;;;66.70;29.10;;;;;;;0.11;87.92;99937.71;88003;1284;94654;-67
2021/12/11 06:13:20;;;;;;;61.30;27.90;;;;;;;0.12;87.96;99932.86;87999;1282;77736;-67
2021/12/11 06:15:31;;;;;;;66.90;29.80;;;;;;;0.13;87.74;99932.81;88034;1281;82679;-67
2021/12/11 06:17:43;;;;;;;68.40;28.60;;;;;;;0.12;87.86;99933.59;87881;1282;100319;-68
2021/12/11 06:19:53;;;;;;;69.20;27.80;;;;;;;0.11;87.80;99936.90;88047;1284;88162;-69
2021/12/11 06:22:04;;;;;;;58.30;25.40;;;;;;;0.09;87.74;99937.79;87996;1282;96007;-64
2021/12/11 06:24:13;;;;;;;61.00;26.30;;;;;;;0.08;87.58;99938.59;88021;1281;78581;-65
2021/12/11 06:26:23;;;;;;;60.10;26.50;;;;;;;0.09;87.67;99941.85;87997;1280;80262;-66
2021/12/11 06:28:32;;;;;;;63.10;26.80;;;;;;;0.10;87.67;99941.71;87989;1281;98532;-67
2021/12/11 06:30:42;;;;;;;63.90;27.60;;;;;;;0.15;87.62;99941.45;88063;1281;86876;-67
2021/12/11 06:32:53;;;;;;;65.50;29.40;;;;;;;0.17;87.47;99945.91;88053;1279;92986;-64
2021/12/11 06:35:09;;;;;;;63.70;27.30;;;;;;;0.14;87.63;99953.30;88010;1282;78197;-64
2021/12/11 06:37:21;;;;;;;68.40;27.80;;;;;;;0.14;87.91;99954.13;87930;1281;81044;-68
2021/12/11 06:39:30;;;;;;;72.70;28.30;;;;;;;0.16;87.54;99955.08;88021;1285;100658;-71
2021/12/11 06:41:42;;;;;;;77.90;28.10;;;;;;;0.14;87.60;99953.64;88036;1285;89280;-65
2021/12/11 06:43:52;;;;;;;68.30;27.50;;;;;;;0.10;87.56;99955.59;87986;1280;95623;-65
2021/12/11 06:46:01;;;;;;;62.10;26.80;;;;;;;0.10;87.51;99958.93;88055;1282;81155;-67
2021/12/11 06:48:11;;;;;;;272.10;132.10;;;;;;;0.13;87.66;99961.15;88046;1282;82755;-67
2021/12/11 06:50:21;;;;;;;73.70;29.00;;;;;;;0.16;87.48;99965.62;87881;1285;99259;-68
2021/12/11 06:52:30;;;;;;;71.60;29.70;;;;;;;0.16;87.73;99969.58;88024;1281;88317;-65
2021/12/11 06:54:40;;;;;;;69.40;28.90;;;;;;;0.18;87.67;99968.80;88007;1282;94745;-65
2021/12/11 06:56:51;;;;;;;68.80;27.30;;;;;;;0.19;87.58;99970.19;88057;1285;77747;-67
2021/12/11 06:59:01;;;;;;;68.10;29.40;;;;;;;0.19;87.69;99970.37;88027;1281;80015;-67
2021/12/11 07:01:12;;;;;;;70.00;29.00;;;;;;;0.20;87.70;99974.17;88021;1282;99755;-68
2021/12/11 07:03:21;;;;;;;80.10;28.80;;;;;;;0.16;87.31;99981.23;87986;1285;88483;-67
2021/12/11 07:05:33;;;;;;;76.30;28.50;;;;;;;0.11;87.52;99983.05;87869;1281;93016;-68
2021/12/11 07:07:43;;;;;;;73.90;28.70;;;;;;;0.10;87.69;99978.02;88024;1282;79644;-65
2021/12/11 07:09:54;;;;;;;75.90;28.10;;;;;;;0.12;87.71;99974.36;88027;1282;79841;-64
2021/12/11 07:12:06;;;;;;;75.90;28.70;;;;;;;0.15;88.05;99976.88;87892;1279;99068;-67
2021/12/11 07:14:20;;;;;;;68.90;26.20;;;;;;;0.19;87.94;99979.02;87965;1279;88985;-66
2021/12/11 07:16:29;;;;;;;67.90;27.60;;;;;;;0.22;87.94;99990.10;87989;1281;94014;-65
2021/12/11 07:18:40;;;;;;;66.10;28.40;;;;;;;0.29;87.87;99993.87;88037;1282;76823;-66
2021/12/11 07:20:49;;;;;;;69.80;27.70;;;;;;;0.37;87.77;99997.09;88041;1282;82137;-65
2021/12/11 07:23:00;;;;;;;72.80;30.00;;;;;;;0.43;87.78;99999.36;88018;1282;99211;-68
2021/12/11 07:25:19;;;;;;;71.30;30.40;;;;;;;0.40;87.86;100008.13;87831;1285;87297;-68
2021/12/11 07:27:31;;;;;;;68.60;29.40;;;;;;;0.42;87.71;100008.52;87905;1281;95319;-64
2021/12/11 07:29:45;;;;;;;69.20;29.30;;;;;;;0.48;87.95;100006.86;87906;1282;78846;-67
2021/12/11 07:32:02;;;;;;;69.20;28.80;;;;;;;0.53;87.89;100007.68;87912;1282;82451;-66
2021/12/11 07:34:19;;;;;;;67.70;26.70;;;;;;;0.54;88.00;100011.98;87764;1283;97031;-64
2021/12/11 07:36:33;;;;;;;75.20;27.80;;;;;;;0.58;87.92;100013.11;88076;1277;89105;-65
2021/12/11 07:38:47;;;;;;;;;;;;;;;0.65;87.83;100014.10;88005;1281;94520;-67
2021/12/11 07:41:05;;;;;;;73.60;28.20;;;;;;;0.69;88.17;100015.67;87704;1287;81665;-65
2021/12/11 07:43:18;;;;;;;66.70;29.70;;;;;;;0.78;88.02;100019.27;87823;1284;83353;-66
2021/12/11 07:45:38;;;;;;;73.40;29.20;;;;;;;0.87;87.77;100018.88;87880;1284;100211;-66
2021/12/11 07:47:56;;;;;;;71.30;29.70;;;;;;;0.91;87.94;100026.64;88034;1282;87780;-66
2021/12/11 07:50:07;;;;;;;70.80;30.30;;;;;;;0.96;87.78;100027.91;88168;1274;93973;-67
2021/12/11 07:52:19;;;;;;;70.40;31.90;;;;;;;0.99;87.78;100034.55;88082;1276;77773;-64
2021/12/11 07:54:30;;;;;;;70.30;30.90;;;;;;;1.02;87.65;100036.20;87996;1281;82157;-63
2021/12/11 07:56:43;;;;;;;73.50;31.50;;;;;;;1.05;87.70;100036.88;88029;1280;98690;-66
2021/12/11 07:59:00;;;;;;;77.20;30.00;;;;;;;1.05;87.78;100035.66;88065;1274;87182;-66
2021/12/11 08:01:13;;;;;;;70.00;29.60;;;;;;;1.05;87.60;100039.34;88041;1285;95618;-66
2021/12/11 08:03:27;;;;;;;73.70;29.70;;;;;;;1.04;87.68;100046.04;88043;1276;77944;-66
2021/12/11 08:05:38;;;;;;;67.00;27.80;;;;;;;1.07;87.47;100046.82;87831;1285;82654;-67
2021/12/11 08:07:49;;;;;;;62.30;26.10;;;;;;;1.13;87.57;100045.54;87989;1282;99238;-66
2021/12/11 08:10:00;;;;;;;62.30;27.70;;;;;;;1.22;87.53;100044.88;88020;1281;86991;-67
2021/12/11 08:12:12;;;;;;;65.80;29.70;;;;;;;1.23;87.41;100047.06;87972;1281;95348;-65
2021/12/11 08:14:24;;;;;;;65.10;27.50;;;;;;;1.25;87.44;100052.40;88035;1280;77453;-63
2021/12/11 08:16:45;;;;;;;64.80;29.50;;;;;;;1.19;87.08;100053.67;88028;1282;81243;-65
2021/12/11 08:18:56;;;;;;;68.00;29.00;;;;;;;1.17;87.27;100060.23;88026;1271;98448;-64
2021/12/11 08:21:06;;;;;;;65.50;26.70;;;;;;;1.16;87.31;100064.05;87909;1281;88494;-65
2021/12/11 08:23:19;;;;;;;70.80;28.60;;;;;;;1.14;87.26;100070.79;87960;1280;95781;-65
2021/12/11 08:25:35;;;;;;;60.70;28.90;;;;;;;1.10;87.24;100074.85;88013;1286;80335;-65
2021/12/11 08:27:44;;;;;;;59.80;26.70;;;;;;;1.04;87.36;100082.70;88045;1281;79626;-64
2021/12/11 08:29:57;;;;;;;63.60;26.90;;;;;;;1.01;87.11;100083.66;88027;1280;98574;-62
2021/12/11 08:32:12;;;;;;;65.60;27.70;;;;;;;1.02;87.22;100084.44;87927;1281;87070;-62
2021/12/11 08:34:24;;;;;;;61.60;26.70;;;;;;;1.07;87.41;100087.73;88028;1282;96135;-61
2021/12/11 08:36:38;;;;;;;65.80;27.30;;;;;;;1.14;87.33;100091.22;88026;1281;78064;-66
2021/12/11 08:38:52;;;;;;;68.00;29.50;;;;;;;1.19;87.20;100093.89;88051;1283;81550;-66
2021/12/11 08:41:07;;;;;;;63.50;28.10;;;;;;;1.19;87.30;100101.39;88037;1282;99115;-69
2021/12/11 08:43:21;;;;;;;67.50;28.90;;;;;;;1.20;87.25;100107.16;88030;1282;88874;-66
2021/12/11 08:45:45;;;;;;;66.40;30.20;;;;;;;1.17;87.43;100110.59;87917;1283;96006;-65
2021/12/11 08:48:00;;;;;;;;;;;;;;;1.09;87.16;100111.33;88040;1282;76254;-66
2021/12/11 08:50:17;;;;;;;65.80;29.70;;;;;;;1.07;87.45;100118.02;87961;1281;79917;-65
2021/12/11 08:52:33;;;;;;;65.90;28.70;;;;;;;1.06;87.44;100120.29;88022;1282;98787;-61
2021/12/11 08:54:47;;;;;;;69.20;30.70;;;;;;;1.10;87.40;100116.51;88032;1282;87624;-65
2021/12/11 08:57:03;;;;;;;71.10;29.90;;;;;;;1.13;87.29;100120.84;88020;1285;94850;-63
2021/12/11 08:59:20;;;;;;;69.20;30.10;;;;;;;1.17;87.53;100124.05;87824;1283;81523;-65
2021/12/11 09:01:41;;;;;;;68.10;28.60;;;;;;;1.22;87.50;100128.98;87962;1279;80602;-66
2021/12/11 09:03:56;;;;;;;66.80;31.00;;;;;;;1.27;87.34;100130.48;88044;1282;97060;-63
2021/12/11 09:06:15;;;;;;;63.40;29.40;;;;;;;1.31;87.45;100132.02;88055;1285;87914;-66
2021/12/11 09:08:30;;;;;;;68.30;31.50;;;;;;;1.36;87.57;100137.41;88015;1280;94667;-64
2021/12/11 09:10:45;;;;;;;69.00;31.80;;;;;;;1.42;87.41;100141.34;88010;1282;76575;-66
2021/12/11 09:13:07;;;;;;;64.20;29.20;;;;;;;1.44;87.25;100141.02;88050;1280;81732;-62
2021/12/11 09:15:28;;;;;;;71.00;32.60;;;;;;;1.37;87.29;100145.48;88044;1280;100057;-63
2021/12/11 09:17:48;;;;;;;74.10;32.60;;;;;;;1.35;87.18;100148.49;88069;1282;86399;-64
2021/12/11 09:20:07;;;;;;;71.80;32.80;;;;;;;1.34;87.35;100153.43;87844;1286;93884;-65
2021/12/11 09:22:24;;;;;;;74.00;31.70;;;;;;;1.35;87.14;100155.83;87928;1278;78738;-63
2021/12/11 09:24:40;;;;;;;70.90;32.10;;;;;;;1.34;87.12;100157.15;88021;1280;82577;-63
2021/12/11 09:26:56;;;;;;;73.60;30.70;;;;;;;1.34;87.26;100162.81;88030;1282;100407;-66
2021/12/11 09:29:17;;;;;;;74.80;31.80;;;;;;;1.36;87.23;100168.17;88035;1279;86500;-64
2021/12/11 09:31:37;;;;;;;84.80;33.40;;;;;;;1.39;87.36;100171.03;88009;1282;95181;-62
2021/12/11 09:34:27;;;;;;;80.80;33.70;;;;;;;1.48;87.24;100172.40;88016;1285;78987;-65
2021/12/11 09:36:57;;;;;;;85.60;36.40;;;;;;;1.57;87.09;100174.96;88091;1281;81023;-64
2021/12/11 09:39:25;;;;;;;92.00;36.90;;;;;;;1.56;87.07;100174.80;88033;1285;98928;-64
2021/12/11 09:41:33;;;;;;;90.50;38.10;;;;;;;1.57;87.02;100173.53;88029;1282;87756;-65
2021/12/11 09:43:49;;;;;;;88.20;38.40;;;;;;;1.57;86.94;100184.66;88025;1280;93307;-63
2021/12/11 09:45:59;;;;;;;88.50;37.10;;;;;;;1.55;87.21;100192.32;88019;1282;78838;-64
2021/12/11 09:48:18;;;;;;;79.70;35.40;;;;;;;1.57;87.09;100200.14;88028;1286;82392;-64
2021/12/11 09:50:35;;;;;;;84.30;34.70;;;;;;;1.63;86.80;100203.49;88009;1282;100005;-63
2021/12/11 09:52:46;;;;;;;81.80;35.30;;;;;;;1.56;86.73;100199.33;87986;1282;88599;-64
2021/12/11 09:55:06;;;;;;;81.80;34.50;;;;;;;1.56;86.83;100198.84;88000;1282;96217;-62
2021/12/11 09:57:24;;;;;;;80.80;34.50;;;;;;;1.57;86.92;100200.79;88013;1282;81492;-64
2021/12/11 09:59:41;;;;;;;87.00;36.90;;;;;;;1.63;87.09;100202.63;88054;1286;82161;-69
2021/12/11 10:02:02;;;;;;;82.10;38.80;;;;;;;1.66;86.90;100206.56;88028;1280;99165;-68
2021/12/11 10:04:22;;;;;;;87.70;38.90;;;;;;;1.66;87.25;100213.13;88041;1282;87496;-67
2021/12/11 10:06:49;;;;;;;83.30;37.40;;;;;;;1.66;87.33;100214.61;87845;1281;95126;-64
2021/12/11 10:09:17;;;;;;;83.40;35.50;;;;;;;1.64;87.25;100217.03;88021;1282;77128;-66
2021/12/11 10:11:33;;;;;;;88.40;38.20;;;;;;;1.65;87.16;100218.38;88056;1282;81458;-69
2021/12/11 10:13:52;;;;;;;92.60;37.90;;;;;;;1.59;87.08;100224.64;88030;1285;98451;-61
2021/12/11 10:16:06;;;;;;;83.40;34.70;;;;;;;1.60;86.99;100225.55;88046;1280;87238;-62
2021/12/11 10:18:21;;;;;;;83.10;35.60;;;;;;;1.60;86.78;100231.93;88029;1285;95428;-70
2021/12/11 10:20:46;;;;;;;80.60;35.60;;;;;;;1.62;86.98;100231.44;88009;1285;81835;-62
2021/12/11 10:23:04;;;;;;;86.20;34.30;;;;;;;1.65;86.85;100234.36;88023;1282;82757;-64
2021/12/11 10:25:25;;;;;;;81.50;36.30;;;;;;;1.68;86.94;100235.88;88054;1285;99484;-64
2021/12/11 10:27:38;;;;;;;87.00;37.00;;;;;;;1.70;87.25;100234.36;87946;1282;88613;-65